DLH7117 ZUUU-EDDF
Flight info
| Callsign | DLH7117 |
|---|---|
| Flight time | N/A |
| Altitude | 37100 |
| Route | IGNAK |
| Aircraft | A359/H-SDE2E3FGILRWXY/LB2 |
Departure
| Time | 2026-05-08 05:27 |
|---|---|
| Airport | Chengdu Shuangliu International Airport (ZUUU) |
Arrival
| Time | N/A |
|---|---|
| Airport | Frankfurt Main Airport (EDDF) |
| Time | Latitude | Longitude | Altitude | Speed | Heading |
|---|---|---|---|---|---|
| 2026-05-08 04:20 | 30.58543 | 103.95634 | 1694 ft | 0 kts | 201° |
| 2026-05-08 05:07 | 30.58547 | 103.95635 | 1694 ft | 2 kts | 203° |
| 2026-05-08 05:07 | 30.58560 | 103.95642 | 1694 ft | 2 kts | 203° |
| 2026-05-08 05:07 | 30.58574 | 103.95649 | 1694 ft | 2 kts | 201° |
| 2026-05-08 05:08 | 30.58588 | 103.95655 | 1694 ft | 2 kts | 202° |
| 2026-05-08 05:08 | 30.58600 | 103.95666 | 1694 ft | 2 kts | 244° |
| 2026-05-08 05:08 | 30.58603 | 103.95682 | 1694 ft | 2 kts | 279° |
| 2026-05-08 05:08 | 30.58598 | 103.95698 | 1694 ft | 2 kts | 297° |
| 2026-05-08 05:09 | 30.58591 | 103.95714 | 1694 ft | 2 kts | 292° |
| 2026-05-08 05:09 | 30.58586 | 103.95730 | 1694 ft | 1 kts | 291° |
| 2026-05-08 05:09 | 30.58585 | 103.95732 | 1694 ft | 0 kts | 291° |
| 2026-05-08 05:11 | 30.58587 | 103.95727 | 1694 ft | 0 kts | 291° |
| 2026-05-08 05:12 | 30.58590 | 103.95718 | 1694 ft | 1 kts | 291° |
| 2026-05-08 05:12 | 30.58596 | 103.95702 | 1694 ft | 2 kts | 291° |
| 2026-05-08 05:12 | 30.58603 | 103.95680 | 1694 ft | 3 kts | 292° |
| 2026-05-08 05:12 | 30.58612 | 103.95654 | 1694 ft | 3 kts | 291° |
| 2026-05-08 05:13 | 30.58623 | 103.95622 | 1694 ft | 4 kts | 291° |
| 2026-05-08 05:13 | 30.58635 | 103.95584 | 1694 ft | 5 kts | 290° |
| 2026-05-08 05:13 | 30.58647 | 103.95541 | 1694 ft | 5 kts | 281° |
| 2026-05-08 05:13 | 30.58656 | 103.95492 | 1694 ft | 6 kts | 287° |
| 2026-05-08 05:14 | 30.58673 | 103.95441 | 1694 ft | 6 kts | 289° |
| 2026-05-08 05:14 | 30.58662 | 103.95389 | 1694 ft | 7 kts | 230° |
| 2026-05-08 05:14 | 30.58616 | 103.95361 | 1694 ft | 8 kts | 204° |
| 2026-05-08 05:14 | 30.58562 | 103.95334 | 1694 ft | 8 kts | 202° |
| 2026-05-08 05:15 | 30.58502 | 103.95306 | 1694 ft | 9 kts | 202° |
| 2026-05-08 05:15 | 30.58439 | 103.95277 | 1694 ft | 10 kts | 202° |
| 2026-05-08 05:15 | 30.58369 | 103.95244 | 1694 ft | 11 kts | 202° |
| 2026-05-08 05:15 | 30.58296 | 103.95209 | 1694 ft | 11 kts | 202° |
| 2026-05-08 05:16 | 30.58219 | 103.95174 | 1694 ft | 12 kts | 201° |
| 2026-05-08 05:16 | 30.58139 | 103.95137 | 1694 ft | 12 kts | 202° |
| 2026-05-08 05:16 | 30.58054 | 103.95097 | 1694 ft | 13 kts | 202° |
| 2026-05-08 05:16 | 30.57965 | 103.95056 | 1694 ft | 13 kts | 202° |
| 2026-05-08 05:17 | 30.57873 | 103.95013 | 1694 ft | 14 kts | 202° |
| 2026-05-08 05:17 | 30.57796 | 103.94976 | 1694 ft | 12 kts | 202° |
| 2026-05-08 05:17 | 30.57723 | 103.94943 | 1694 ft | 10 kts | 202° |
| 2026-05-08 05:17 | 30.57651 | 103.94910 | 1694 ft | 11 kts | 201° |
| 2026-05-08 05:18 | 30.57576 | 103.94875 | 1694 ft | 12 kts | 202° |
| 2026-05-08 05:18 | 30.57495 | 103.94837 | 1694 ft | 12 kts | 202° |
| 2026-05-08 05:18 | 30.57411 | 103.94798 | 1694 ft | 13 kts | 202° |
| 2026-05-08 05:18 | 30.57322 | 103.94756 | 1694 ft | 14 kts | 202° |
| 2026-05-08 05:19 | 30.57230 | 103.94714 | 1694 ft | 14 kts | 201° |
| 2026-05-08 05:19 | 30.57134 | 103.94669 | 1694 ft | 15 kts | 202° |
| 2026-05-08 05:19 | 30.57034 | 103.94622 | 1693 ft | 15 kts | 199° |
| 2026-05-08 05:19 | 30.56928 | 103.94589 | 1693 ft | 16 kts | 195° |
| 2026-05-08 05:20 | 30.56821 | 103.94544 | 1693 ft | 16 kts | 202° |
| 2026-05-08 05:20 | 30.56712 | 103.94492 | 1694 ft | 17 kts | 201° |
| 2026-05-08 05:20 | 30.56686 | 103.94481 | 1693 ft | 0 kts | 202° |
| 2026-05-08 05:22 | 30.56683 | 103.94479 | 1693 ft | 0 kts | 202° |
| 2026-05-08 05:22 | 30.56673 | 103.94475 | 1693 ft | 1 kts | 202° |
| 2026-05-08 05:22 | 30.56657 | 103.94467 | 1693 ft | 2 kts | 202° |
| 2026-05-08 05:22 | 30.56635 | 103.94457 | 1693 ft | 3 kts | 202° |
| 2026-05-08 05:23 | 30.56607 | 103.94443 | 1693 ft | 4 kts | 202° |
| 2026-05-08 05:23 | 30.56574 | 103.94428 | 1693 ft | 5 kts | 202° |
| 2026-05-08 05:23 | 30.56535 | 103.94410 | 1693 ft | 6 kts | 202° |
| 2026-05-08 05:23 | 30.56491 | 103.94389 | 1693 ft | 7 kts | 202° |
| 2026-05-08 05:24 | 30.56442 | 103.94366 | 1693 ft | 8 kts | 202° |
| 2026-05-08 05:24 | 30.56387 | 103.94341 | 1693 ft | 8 kts | 202° |
| 2026-05-08 05:24 | 30.56328 | 103.94314 | 1693 ft | 9 kts | 202° |
| 2026-05-08 05:24 | 30.56278 | 103.94274 | 1693 ft | 7 kts | 245° |
| 2026-05-08 05:25 | 30.56287 | 103.94209 | 1693 ft | 8 kts | 288° |
| 2026-05-08 05:25 | 30.56310 | 103.94141 | 1693 ft | 9 kts | 292° |
| 2026-05-08 05:25 | 30.56335 | 103.94071 | 1693 ft | 9 kts | 293° |
| 2026-05-08 05:25 | 30.56362 | 103.94029 | 1693 ft | 6 kts | 333° |
| 2026-05-08 05:26 | 30.56401 | 103.94030 | 1693 ft | 6 kts | 14° |
| 2026-05-08 05:26 | 30.56442 | 103.94044 | 1693 ft | 6 kts | 22° |
| 2026-05-08 05:26 | 30.56591 | 103.94112 | 1693 ft | 52 kts | 21° |
| 2026-05-08 05:26 | 30.57126 | 103.94363 | 1694 ft | 112 kts | 20° |
| 2026-05-08 05:27 | 30.58026 | 103.94779 | 1695 ft | 164 kts | 21° |
| 2026-05-08 05:27 | 30.59236 | 103.95345 | 1773 ft | 201 kts | 22° |
| 2026-05-08 05:27 | 30.60553 | 103.95966 | 2380 ft | 202 kts | 21° |
| 2026-05-08 05:27 | 30.61807 | 103.96568 | 3123 ft | 199 kts | 21° |
| 2026-05-08 05:28 | 30.63122 | 103.97170 | 3695 ft | 204 kts | 22° |
| 2026-05-08 05:28 | 30.64435 | 103.97770 | 4346 ft | 205 kts | 22° |
| 2026-05-08 05:28 | 30.65748 | 103.98384 | 5032 ft | 203 kts | 23° |
| 2026-05-08 05:28 | 30.67041 | 103.99004 | 5718 ft | 201 kts | 24° |
| 2026-05-08 05:29 | 30.68270 | 103.99667 | 6392 ft | 196 kts | 38° |
| 2026-05-08 05:29 | 30.69165 | 104.00829 | 7009 ft | 192 kts | 59° |
| 2026-05-08 05:29 | 30.69792 | 104.02154 | 7611 ft | 188 kts | 62° |
| 2026-05-08 05:29 | 30.70397 | 104.03495 | 8113 ft | 189 kts | 63° |
| 2026-05-08 05:30 | 30.71008 | 104.04964 | 8021 ft | 225 kts | 64° |
| 2026-05-08 05:30 | 30.71724 | 104.06782 | 7717 ft | 269 kts | 64° |
| 2026-05-08 05:30 | 30.72613 | 104.08826 | 7926 ft | 292 kts | 62° |
| 2026-05-08 05:30 | 30.73606 | 104.10856 | 8838 ft | 288 kts | 59° |
| 2026-05-08 05:31 | 30.74705 | 104.12746 | 9819 ft | 280 kts | 47° |
| 2026-05-08 05:31 | 30.76197 | 104.14194 | 10486 ft | 283 kts | 28° |
| 2026-05-08 05:31 | 30.77998 | 104.15171 | 10862 ft | 296 kts | 22° |
| 2026-05-08 05:31 | 30.79956 | 104.16114 | 11162 ft | 311 kts | 21° |
| 2026-05-08 05:32 | 30.82020 | 104.17097 | 11471 ft | 326 kts | 21° |
| 2026-05-08 05:32 | 30.84148 | 104.18117 | 11756 ft | 341 kts | 21° |
| 2026-05-08 05:32 | 30.86403 | 104.19200 | 12031 ft | 356 kts | 21° |
| 2026-05-08 05:32 | 30.88727 | 104.20324 | 12289 ft | 370 kts | 21° |
| 2026-05-08 05:33 | 30.91159 | 104.21503 | 12541 ft | 383 kts | 21° |
| 2026-05-08 05:33 | 30.93676 | 104.22726 | 12789 ft | 396 kts | 21° |
| 2026-05-08 05:33 | 30.96239 | 104.23975 | 13176 ft | 404 kts | 21° |
| 2026-05-08 05:33 | 30.98851 | 104.25249 | 13637 ft | 408 kts | 21° |
| 2026-05-08 05:34 | 31.01463 | 104.26523 | 14117 ft | 412 kts | 21° |
| 2026-05-08 05:34 | 31.04115 | 104.27816 | 14604 ft | 414 kts | 20° |
| 2026-05-08 05:34 | 31.06769 | 104.29112 | 15070 ft | 416 kts | 20° |
| 2026-05-08 05:34 | 31.09473 | 104.30431 | 15507 ft | 419 kts | 20° |
| 2026-05-08 05:35 | 31.12172 | 104.31744 | 15915 ft | 422 kts | 20° |
| 2026-05-08 05:35 | 31.14888 | 104.33064 | 16336 ft | 424 kts | 20° |
| 2026-05-08 05:35 | 31.17596 | 104.34383 | 16727 ft | 427 kts | 20° |
| 2026-05-08 05:35 | 31.20347 | 104.35727 | 17118 ft | 429 kts | 20° |
| 2026-05-08 05:36 | 31.23151 | 104.36957 | 17501 ft | 430 kts | 13° |
| 2026-05-08 05:36 | 31.26083 | 104.37671 | 17863 ft | 430 kts | 4° |
| 2026-05-08 05:36 | 31.29084 | 104.37831 | 18286 ft | 429 kts | 356° |
| 2026-05-08 05:36 | 31.32084 | 104.37690 | 18705 ft | 430 kts | 354° |
| 2026-05-08 05:37 | 31.35045 | 104.37502 | 19070 ft | 432 kts | 354° |
| 2026-05-08 05:37 | 31.38063 | 104.37304 | 19441 ft | 435 kts | 354° |
| 2026-05-08 05:37 | 31.41083 | 104.37112 | 19809 ft | 437 kts | 354° |
| 2026-05-08 05:37 | 31.44144 | 104.36923 | 20175 ft | 439 kts | 354° |
| 2026-05-08 05:38 | 31.47193 | 104.36739 | 20513 ft | 441 kts | 354° |
| 2026-05-08 05:38 | 31.50290 | 104.36555 | 20869 ft | 443 kts | 354° |
| 2026-05-08 05:38 | 31.53365 | 104.36374 | 21205 ft | 445 kts | 354° |
| 2026-05-08 05:38 | 31.56473 | 104.36190 | 21545 ft | 447 kts | 354° |
| 2026-05-08 05:39 | 31.59592 | 104.36006 | 21862 ft | 449 kts | 354° |
| 2026-05-08 05:39 | 31.62695 | 104.35822 | 22169 ft | 451 kts | 354° |
| 2026-05-08 05:39 | 31.65848 | 104.35636 | 22490 ft | 453 kts | 355° |
| 2026-05-08 05:39 | 31.69030 | 104.35447 | 22832 ft | 454 kts | 354° |
| 2026-05-08 05:40 | 31.72183 | 104.35260 | 23124 ft | 456 kts | 355° |
| 2026-05-08 05:40 | 31.75344 | 104.35074 | 23390 ft | 459 kts | 355° |
| 2026-05-08 05:40 | 31.78543 | 104.34893 | 23667 ft | 461 kts | 355° |
| 2026-05-08 05:40 | 31.81741 | 104.34733 | 23951 ft | 463 kts | 355° |
| 2026-05-08 05:41 | 31.84976 | 104.34573 | 24242 ft | 464 kts | 355° |
| 2026-05-08 05:41 | 31.88223 | 104.34410 | 24508 ft | 466 kts | 355° |
| 2026-05-08 05:41 | 31.91480 | 104.34246 | 24784 ft | 468 kts | 355° |
| 2026-05-08 05:41 | 31.94741 | 104.34082 | 25042 ft | 470 kts | 355° |
| 2026-05-08 05:42 | 31.97978 | 104.33916 | 25302 ft | 471 kts | 355° |
| 2026-05-08 05:42 | 32.01274 | 104.33746 | 25558 ft | 473 kts | 355° |
| 2026-05-08 05:42 | 32.04594 | 104.33575 | 25778 ft | 475 kts | 355° |
| 2026-05-08 05:42 | 32.07911 | 104.33405 | 26009 ft | 476 kts | 355° |
| 2026-05-08 05:43 | 32.11199 | 104.33234 | 26227 ft | 478 kts | 355° |
| 2026-05-08 05:43 | 32.14557 | 104.33063 | 26467 ft | 479 kts | 355° |
| 2026-05-08 05:43 | 32.17855 | 104.32893 | 26796 ft | 478 kts | 355° |
| 2026-05-08 05:43 | 32.21180 | 104.32721 | 27133 ft | 476 kts | 355° |
| 2026-05-08 05:44 | 32.24491 | 104.32550 | 27461 ft | 475 kts | 355° |
| 2026-05-08 05:44 | 32.27800 | 104.32377 | 27759 ft | 475 kts | 355° |
| 2026-05-08 05:44 | 32.31108 | 104.32202 | 28020 ft | 475 kts | 355° |
| 2026-05-08 05:44 | 32.34405 | 104.32029 | 28268 ft | 475 kts | 355° |
| 2026-05-08 05:45 | 32.37698 | 104.31857 | 28565 ft | 474 kts | 355° |
| 2026-05-08 05:45 | 32.40979 | 104.31687 | 28839 ft | 473 kts | 354° |
| 2026-05-08 05:45 | 32.44260 | 104.31527 | 29094 ft | 473 kts | 355° |
| 2026-05-08 05:45 | 32.47551 | 104.31370 | 29354 ft | 472 kts | 355° |
| 2026-05-08 05:46 | 32.50822 | 104.31214 | 29607 ft | 472 kts | 355° |
| 2026-05-08 05:46 | 32.54110 | 104.31056 | 29860 ft | 471 kts | 355° |
| 2026-05-08 05:46 | 32.57394 | 104.30898 | 30092 ft | 470 kts | 354° |
| 2026-05-08 05:46 | 32.60637 | 104.30744 | 30331 ft | 470 kts | 354° |
| 2026-05-08 05:47 | 32.63884 | 104.30592 | 30576 ft | 469 kts | 354° |
| 2026-05-08 05:47 | 32.67147 | 104.30437 | 30792 ft | 468 kts | 354° |
| 2026-05-08 05:47 | 32.70407 | 104.30280 | 30981 ft | 469 kts | 354° |
| 2026-05-08 05:47 | 32.73680 | 104.30122 | 31199 ft | 468 kts | 354° |
| 2026-05-08 05:48 | 32.76918 | 104.29964 | 31406 ft | 468 kts | 353° |
| 2026-05-08 05:48 | 32.80186 | 104.29801 | 31583 ft | 467 kts | 353° |
| 2026-05-08 05:48 | 32.83405 | 104.29645 | 31778 ft | 467 kts | 353° |
| 2026-05-08 05:48 | 32.86666 | 104.29488 | 32004 ft | 466 kts | 353° |
| 2026-05-08 05:49 | 32.89890 | 104.29336 | 32167 ft | 466 kts | 353° |
| 2026-05-08 05:49 | 32.93140 | 104.29180 | 32370 ft | 465 kts | 353° |
| 2026-05-08 05:49 | 32.96355 | 104.29028 | 32564 ft | 464 kts | 353° |
| 2026-05-08 05:49 | 32.99575 | 104.28875 | 32731 ft | 464 kts | 353° |
| 2026-05-08 05:50 | 33.02806 | 104.28715 | 32885 ft | 464 kts | 353° |
| 2026-05-08 05:50 | 33.06001 | 104.28561 | 33039 ft | 463 kts | 353° |
| 2026-05-08 05:50 | 33.09205 | 104.28406 | 33208 ft | 462 kts | 353° |
| 2026-05-08 05:50 | 33.12433 | 104.28249 | 33358 ft | 462 kts | 353° |
| 2026-05-08 05:51 | 33.15644 | 104.28094 | 33536 ft | 461 kts | 353° |
| 2026-05-08 05:51 | 33.18853 | 104.27937 | 33687 ft | 460 kts | 353° |
| 2026-05-08 05:51 | 33.22034 | 104.27781 | 33803 ft | 460 kts | 353° |
| 2026-05-08 05:51 | 33.25239 | 104.27621 | 33905 ft | 460 kts | 352° |
| 2026-05-08 05:52 | 33.28447 | 104.27465 | 33990 ft | 460 kts | 352° |
| 2026-05-08 05:52 | 33.34832 | 104.26968 | 34187 ft | 457 kts | 348° |
| 2026-05-08 05:52 | 33.37961 | 104.26447 | 34329 ft | 453 kts | 345° |
| 2026-05-08 05:53 | 33.41045 | 104.25739 | 34456 ft | 451 kts | 342° |
| 2026-05-08 05:53 | 33.47146 | 104.24139 | 34545 ft | 452 kts | 342° |
| 2026-05-08 05:54 | 33.53303 | 104.22499 | 34557 ft | 456 kts | 342° |
| 2026-05-08 05:54 | 33.59548 | 104.20837 | 34559 ft | 459 kts | 342° |
| 2026-05-08 05:55 | 33.65797 | 104.19178 | 34554 ft | 463 kts | 342° |
| 2026-05-08 05:55 | 33.72125 | 104.17493 | 34543 ft | 466 kts | 342° |
| 2026-05-08 05:56 | 33.78431 | 104.15817 | 34507 ft | 468 kts | 342° |
| 2026-05-08 05:56 | 33.84827 | 104.14113 | 34531 ft | 470 kts | 342° |
| 2026-05-08 05:57 | 33.91228 | 104.12405 | 34535 ft | 473 kts | 342° |
| 2026-05-08 05:57 | 33.97641 | 104.10688 | 34544 ft | 475 kts | 342° |
| 2026-05-08 05:58 | 34.04108 | 104.08955 | 34521 ft | 478 kts | 343° |
| 2026-05-08 05:58 | 34.10627 | 104.07207 | 34522 ft | 479 kts | 343° |
| 2026-05-08 05:59 | 34.17130 | 104.05472 | 34532 ft | 481 kts | 343° |
| 2026-05-08 05:59 | 34.23673 | 104.03719 | 34527 ft | 482 kts | 343° |
| 2026-05-08 06:00 | 34.30222 | 104.01958 | 34529 ft | 484 kts | 343° |
| 2026-05-08 06:00 | 34.36809 | 104.00182 | 34528 ft | 485 kts | 343° |
| 2026-05-08 06:01 | 34.43384 | 103.98405 | 34534 ft | 485 kts | 342° |
| 2026-05-08 06:01 | 34.49981 | 103.96620 | 34549 ft | 486 kts | 342° |
| 2026-05-08 06:02 | 34.56567 | 103.94833 | 34556 ft | 487 kts | 342° |
| 2026-05-08 06:02 | 34.63160 | 103.93041 | 34558 ft | 488 kts | 342° |
| 2026-05-08 06:03 | 34.69799 | 103.91232 | 34558 ft | 488 kts | 342° |
| 2026-05-08 06:03 | 34.76405 | 103.89430 | 34563 ft | 489 kts | 342° |
| 2026-05-08 06:04 | 34.83078 | 103.87610 | 34565 ft | 489 kts | 342° |
| 2026-05-08 06:04 | 34.89698 | 103.85798 | 34578 ft | 489 kts | 342° |
| 2026-05-08 06:05 | 34.96355 | 103.83974 | 34584 ft | 490 kts | 342° |
| 2026-05-08 06:05 | 35.02974 | 103.82156 | 34577 ft | 490 kts | 342° |
| 2026-05-08 06:06 | 35.09644 | 103.80321 | 34578 ft | 490 kts | 342° |
| 2026-05-08 06:06 | 35.16295 | 103.78500 | 34561 ft | 490 kts | 342° |
| 2026-05-08 06:07 | 35.22955 | 103.76673 | 34652 ft | 491 kts | 342° |
| 2026-05-08 06:07 | 35.26273 | 103.75758 | 34462 ft | 491 kts | 342° |
| 2026-05-08 06:07 | 35.29615 | 103.74834 | 34562 ft | 492 kts | 342° |
| 2026-05-08 06:08 | 35.36249 | 103.73000 | 34496 ft | 492 kts | 342° |
| 2026-05-08 06:08 | 35.42956 | 103.71142 | 34504 ft | 492 kts | 342° |
| 2026-05-08 06:09 | 35.49589 | 103.69300 | 34491 ft | 491 kts | 342° |
| 2026-05-08 06:09 | 35.56260 | 103.67444 | 34488 ft | 491 kts | 342° |
| 2026-05-08 06:10 | 35.62944 | 103.65581 | 34481 ft | 491 kts | 342° |
| 2026-05-08 06:10 | 35.69597 | 103.63724 | 34473 ft | 490 kts | 341° |
| 2026-05-08 06:11 | 35.76242 | 103.61866 | 34465 ft | 490 kts | 342° |
| 2026-05-08 06:11 | 35.82867 | 103.60010 | 34453 ft | 490 kts | 341° |
| 2026-05-08 06:12 | 35.89535 | 103.58141 | 34435 ft | 490 kts | 341° |
| 2026-05-08 06:12 | 35.96155 | 103.56278 | 34439 ft | 490 kts | 341° |
| 2026-05-08 06:13 | 36.02786 | 103.54412 | 34438 ft | 489 kts | 341° |
| 2026-05-08 06:13 | 36.09404 | 103.52544 | 34442 ft | 489 kts | 341° |
| 2026-05-08 06:14 | 36.16058 | 103.50672 | 34445 ft | 489 kts | 341° |
| 2026-05-08 06:14 | 36.22654 | 103.48814 | 34429 ft | 489 kts | 341° |
| 2026-05-08 06:15 | 36.29271 | 103.46939 | 34428 ft | 489 kts | 341° |
| 2026-05-08 06:15 | 36.35920 | 103.45051 | 34426 ft | 489 kts | 341° |
| 2026-05-08 06:16 | 36.42531 | 103.43167 | 34438 ft | 488 kts | 341° |
| 2026-05-08 06:16 | 36.49136 | 103.41283 | 34446 ft | 488 kts | 341° |
| 2026-05-08 06:17 | 36.59076 | 103.38438 | 34467 ft | 488 kts | 341° |
| 2026-05-08 06:17 | 36.65683 | 103.36538 | 34473 ft | 488 kts | 341° |
| 2026-05-08 06:18 | 36.72259 | 103.34641 | 34504 ft | 487 kts | 340° |
| 2026-05-08 06:18 | 36.78849 | 103.32703 | 34501 ft | 487 kts | 340° |
| 2026-05-08 06:19 | 36.85419 | 103.30600 | 34497 ft | 482 kts | 334° |
| 2026-05-08 06:19 | 36.91307 | 103.27020 | 34523 ft | 469 kts | 321° |
| 2026-05-08 06:20 | 36.96283 | 103.21912 | 34542 ft | 460 kts | 309° |
| 2026-05-08 06:20 | 37.00146 | 103.15663 | 34564 ft | 453 kts | 299° |
| 2026-05-08 06:21 | 37.03489 | 103.09056 | 34549 ft | 452 kts | 298° |
| 2026-05-08 06:21 | 37.06822 | 103.02399 | 34572 ft | 452 kts | 298° |
| 2026-05-08 06:22 | 37.10158 | 102.95738 | 34569 ft | 452 kts | 298° |
| 2026-05-08 06:22 | 37.13513 | 102.89085 | 34567 ft | 452 kts | 298° |
| 2026-05-08 06:23 | 37.16848 | 102.82434 | 34572 ft | 452 kts | 298° |
| 2026-05-08 06:23 | 37.20167 | 102.75772 | 34576 ft | 451 kts | 298° |
| 2026-05-08 06:24 | 37.23472 | 102.69109 | 34577 ft | 451 kts | 298° |
| 2026-05-08 06:24 | 37.26769 | 102.62443 | 34564 ft | 451 kts | 298° |
| 2026-05-08 06:25 | 37.30071 | 102.55759 | 34572 ft | 451 kts | 298° |
| 2026-05-08 06:25 | 37.33167 | 102.48991 | 34565 ft | 448 kts | 294° |
| 2026-05-08 06:26 | 37.35715 | 102.41917 | 34571 ft | 446 kts | 289° |
| 2026-05-08 06:26 | 37.37693 | 102.34546 | 34573 ft | 444 kts | 283° |
| 2026-05-08 06:27 | 37.39206 | 102.27061 | 34564 ft | 444 kts | 282° |
| 2026-05-08 06:27 | 37.40671 | 102.19536 | 34558 ft | 444 kts | 282° |
| 2026-05-08 06:28 | 37.42128 | 102.12046 | 34561 ft | 444 kts | 282° |
| 2026-05-08 06:28 | 37.43594 | 102.04504 | 34578 ft | 445 kts | 282° |
| 2026-05-08 06:29 | 37.45066 | 101.96943 | 34569 ft | 445 kts | 282° |
| 2026-05-08 06:29 | 37.46519 | 101.89408 | 34574 ft | 445 kts | 282° |
| 2026-05-08 06:30 | 37.47956 | 101.81889 | 34569 ft | 445 kts | 282° |
| 2026-05-08 06:30 | 37.49489 | 101.74322 | 34564 ft | 446 kts | 284° |
| 2026-05-08 06:31 | 37.51576 | 101.66975 | 34577 ft | 448 kts | 290° |
| 2026-05-08 06:31 | 37.54260 | 101.59927 | 34611 ft | 450 kts | 295° |
| 2026-05-08 06:32 | 37.57204 | 101.52980 | 34624 ft | 449 kts | 294° |
| 2026-05-08 06:32 | 37.60133 | 101.46091 | 34640 ft | 449 kts | 295° |
| 2026-05-08 06:33 | 37.63088 | 101.39128 | 34645 ft | 449 kts | 295° |
| 2026-05-08 06:33 | 37.66012 | 101.32219 | 34663 ft | 449 kts | 294° |
| 2026-05-08 06:34 | 37.68937 | 101.25275 | 34667 ft | 450 kts | 295° |
| 2026-05-08 06:34 | 37.71875 | 101.18299 | 34679 ft | 450 kts | 294° |
| 2026-05-08 06:35 | 37.74798 | 101.11354 | 34695 ft | 451 kts | 294° |
| 2026-05-08 06:35 | 37.77733 | 101.04352 | 34690 ft | 451 kts | 294° |
| 2026-05-08 06:36 | 37.80662 | 100.97355 | 34708 ft | 451 kts | 294° |
| 2026-05-08 06:36 | 37.83598 | 100.90378 | 34812 ft | 449 kts | 295° |
| 2026-05-08 06:37 | 37.85100 | 100.87015 | 35391 ft | 439 kts | 296° |
| 2026-05-08 06:37 | 37.86589 | 100.83736 | 36240 ft | 425 kts | 295° |
| 2026-05-08 06:37 | 37.88046 | 100.80516 | 36606 ft | 421 kts | 295° |
| 2026-05-08 06:37 | 37.89484 | 100.77309 | 36731 ft | 420 kts | 295° |
| 2026-05-08 06:38 | 37.92334 | 100.70932 | 37270 ft | 408 kts | 295° |
| 2026-05-08 06:38 | 37.93709 | 100.67854 | 37735 ft | 400 kts | 295° |
| 2026-05-08 06:38 | 37.95072 | 100.64787 | 37831 ft | 398 kts | 295° |
| 2026-05-08 06:39 | 37.97796 | 100.58633 | 37637 ft | 402 kts | 295° |
| 2026-05-08 06:39 | 38.00517 | 100.52477 | 37533 ft | 403 kts | 295° |
| 2026-05-08 06:40 | 38.03256 | 100.46277 | 37402 ft | 404 kts | 295° |
| 2026-05-08 06:40 | 38.05993 | 100.40066 | 37284 ft | 403 kts | 295° |
| 2026-05-08 06:41 | 38.08725 | 100.33859 | 37165 ft | 404 kts | 294° |
| 2026-05-08 06:41 | 38.11454 | 100.27644 | 37054 ft | 406 kts | 294° |
| 2026-05-08 06:42 | 38.14221 | 100.21377 | 36932 ft | 406 kts | 294° |
| 2026-05-08 06:42 | 38.16969 | 100.15120 | 36818 ft | 406 kts | 294° |
| 2026-05-08 06:43 | 38.19715 | 100.08846 | 36705 ft | 407 kts | 294° |
| 2026-05-08 06:43 | 38.22440 | 100.02595 | 36735 ft | 406 kts | 295° |
| 2026-05-08 06:44 | 38.25164 | 99.96333 | 36719 ft | 406 kts | 295° |
| 2026-05-08 06:44 | 38.27898 | 99.90037 | 36707 ft | 407 kts | 295° |
| 2026-05-08 06:45 | 38.30609 | 99.83781 | 36707 ft | 407 kts | 295° |
| 2026-05-08 06:45 | 38.32435 | 99.79559 | 36710 ft | 408 kts | 295° |